Time;durP1;ratioP1;P1;durP2;ratioP2;P2;SDS_P1;SDS_P2;PMS_P1;PMS_P2;Temp;Humidity;BMP_temperature;BMP_pressure;BME280_temperature;BME280_humidity;BME280_pressure;Samples;Min_cycle;Max_cycle;Signal;HPM_P1;HPM_P2
2022/10/16 00:01:20;;;;;;;1.48;0.20;;;;;;;9.94;56.67;100772.75;5030180;28;20047;-67
2022/10/16 00:03:47;;;;;;;1.60;0.70;;;;;;;10.04;56.11;100771.50;5027831;28;20071;-68
2022/10/16 00:06:14;;;;;;;5.82;0.43;;;;;;;10.06;56.08;100772.28;5031341;28;20029;-69
2022/10/16 00:08:40;;;;;;;3.35;0.47;;;;;;;10.15;55.73;100782.38;5019161;28;20253;-68
2022/10/16 00:11:09;;;;;;;1.45;0.40;;;;;;;10.13;55.62;100784.19;5027424;28;20044;-68
2022/10/16 00:13:36;;;;;;;2.38;0.22;;;;;;;10.13;55.73;100789.41;5028365;28;20464;-68
2022/10/16 00:16:03;;;;;;;1.60;0.20;;;;;;;10.00;56.11;100794.25;5029199;28;20056;-68
2022/10/16 00:18:29;;;;;;;4.90;0.45;;;;;;;10.17;55.58;100792.75;5026068;28;20649;-69
2022/10/16 00:20:55;;;;;;;2.72;0.22;;;;;;;10.28;55.19;100792.31;5026816;28;21018;-68
2022/10/16 00:23:21;;;;;;;1.80;0.20;;;;;;;9.83;56.55;100796.66;5042764;28;20044;-67
2022/10/16 00:25:58;;;;;;;3.97;0.60;;;;;;;9.80;56.63;100797.63;5028869;28;20076;-67
2022/10/16 00:28:24;;;;;;;2.38;0.32;;;;;;;9.75;56.47;100794.31;5013431;28;20041;-68
2022/10/16 00:30:49;;;;;;;2.40;0.20;;;;;;;9.37;57.42;100796.59;5028732;28;20045;-67
2022/10/16 00:33:15;;;;;;;5.65;0.50;;;;;;;9.45;57.70;100800.66;5029577;28;20326;-67
2022/10/16 00:35:40;;;;;;;12.93;1.10;;;;;;;9.62;57.09;100793.06;5029098;28;20029;-70
2022/10/16 00:38:06;;;;;;;4.93;0.40;;;;;;;9.90;56.16;100789.44;5027824;28;20492;-68
2022/10/16 00:40:31;;;;;;;2.55;0.60;;;;;;;9.83;56.19;100794.03;5036025;28;20289;-68
2022/10/16 00:42:57;;;;;;;4.38;0.35;;;;;;;9.82;56.58;100789.75;5027763;28;20048;-68
2022/10/16 00:45:23;;;;;;;2.55;0.30;;;;;;;9.72;56.78;100789.22;5030594;28;20034;-68
2022/10/16 00:47:51;;;;;;;4.28;0.30;;;;;;;9.96;56.12;100791.81;5026939;28;20053;-68
2022/10/16 00:50:32;;;;;;;4.78;0.93;;;;;;;10.10;55.61;100799.09;5030837;28;20276;-68
2022/10/16 00:53:00;;;;;;;3.15;0.80;;;;;;;9.97;55.81;100798.75;5014944;28;20037;-68
2022/10/16 00:55:27;;;;;;;2.05;0.40;;;;;;;10.13;55.47;100796.41;5042360;28;20033;-68
2022/10/16 00:57:54;;;;;;;3.30;0.32;;;;;;;10.11;55.61;100785.16;5035025;28;20037;-68
2022/10/16 01:00:25;;;;;;;2.50;0.40;;;;;;;10.02;55.97;100791.59;5028662;28;20166;-68
2022/10/16 01:02:56;;;;;;;1.58;0.22;;;;;;;9.95;55.80;100795.34;5027026;28;20045;-68
2022/10/16 01:05:46;;;;;;;1.98;0.63;;;;;;;10.14;55.57;100796.31;5028929;28;20029;-68
2022/10/16 01:08:25;;;;;;;4.07;0.57;;;;;;;10.32;55.10;100788.66;5027564;28;20111;-70
2022/10/16 01:11:07;;;;;;;2.60;0.20;;;;;;;10.41;54.55;100783.06;5026534;28;20047;-69
2022/10/16 01:13:38;;;;;;;2.95;0.50;;;;;;;10.30;55.50;100787.88;5023242;28;20041;-70
2022/10/16 01:16:21;;;;;;;5.82;0.85;;;;;;;10.20;55.07;100790.84;5028555;28;20029;-69
2022/10/16 01:18:52;;;;;;;5.03;0.30;;;;;;;10.37;54.53;100791.94;5033395;28;21102;-69
2022/10/16 01:21:29;;;;;;;2.67;0.30;;;;;;;10.21;54.97;100787.34;5027531;28;20126;-69
2022/10/16 01:24:09;;;;;;;5.55;0.40;;;;;;;10.27;54.87;100795.84;5026428;28;20049;-69
2022/10/16 01:26:56;;;;;;;2.88;0.25;;;;;;;10.21;54.93;100799.53;5020005;28;20026;-69
2022/10/16 01:29:48;;;;;;;3.90;0.30;;;;;;;10.07;55.74;100800.09;5028774;28;20070;-69
2022/10/16 01:32:28;;;;;;;3.60;0.30;;;;;;;10.26;54.87;100795.00;5029098;28;20218;-69
2022/10/16 01:35:01;;;;;;;1.05;0.35;;;;;;;10.10;55.40;100801.72;5040392;28;20208;-69
2022/10/16 01:37:53;;;;;;;2.45;0.28;;;;;;;10.11;54.98;100796.44;5033975;28;20119;-69
2022/10/16 01:40:20;;;;;;;0.90;0.20;;;;;;;10.24;54.41;100791.59;5038321;28;20584;-69
2022/10/16 01:42:52;;;;;;;10.05;0.70;;;;;;;9.96;55.41;100807.50;5030658;28;20060;-69
2022/10/16 01:45:20;;;;;;;5.78;0.60;;;;;;;9.96;55.62;100802.25;5039072;28;20116;-68
2022/10/16 01:47:47;;;;;;;4.20;0.47;;;;;;;9.78;56.03;100802.03;5030053;28;20099;-69
2022/10/16 01:50:16;;;;;;;2.33;0.43;;;;;;;9.93;55.62;100797.19;5032982;28;20033;-69
2022/10/16 01:52:45;;;;;;;4.13;0.63;;;;;;;9.72;56.33;100809.22;5032682;28;21366;-69
2022/10/16 01:55:17;;;;;;;7.20;0.45;;;;;;;9.89;55.38;100803.41;5031377;28;20227;-69
2022/10/16 01:57:45;;;;;;;;;;;;;;;9.78;55.54;100809.00;5031855;28;20168;-69
2022/10/16 02:00:13;;;;;;;8.10;0.85;;;;;;;9.75;55.97;100809.97;5030587;28;20019;-69
2022/10/16 02:02:47;;;;;;;3.80;0.40;;;;;;;9.77;55.92;100810.78;5029017;28;20041;-69
2022/10/16 02:05:24;;;;;;;3.08;0.30;;;;;;;9.47;56.98;100809.28;5031869;28;20033;-68
2022/10/16 02:07:49;;;;;;;2.88;0.43;;;;;;;9.38;57.18;100806.09;5038040;28;20073;-69
2022/10/16 02:10:16;;;;;;;2.05;0.47;;;;;;;9.26;57.37;100811.78;5031003;28;20126;-69
2022/10/16 02:12:47;;;;;;;4.55;0.38;;;;;;;9.55;56.65;100804.66;5038981;28;20568;-69
2022/10/16 02:15:13;;;;;;;6.38;0.50;;;;;;;9.59;56.36;100808.84;5031357;28;20091;-69
2022/10/16 02:17:39;;;;;;;4.10;0.40;;;;;;;9.66;56.05;100806.88;5036372;28;20278;-69
2022/10/16 02:20:05;;;;;;;0.98;0.63;;;;;;;9.51;56.54;100805.66;5033652;28;20033;-69
2022/10/16 02:22:39;;;;;;;4.95;0.70;;;;;;;9.49;56.90;100815.31;5030389;28;20053;-69
2022/10/16 02:25:10;;;;;;;1.35;0.30;;;;;;;9.64;56.07;100812.13;5045805;28;20029;-69
2022/10/16 02:27:46;;;;;;;6.10;0.60;;;;;;;9.53;56.68;100815.13;5030415;28;20067;-69
2022/10/16 02:30:21;;;;;;;1.88;0.80;;;;;;;9.55;56.62;100815.94;5029477;28;20036;-69
2022/10/16 02:32:48;;;;;;;2.15;0.20;;;;;;;9.77;56.15;100808.16;5036408;28;20049;-69
2022/10/16 02:35:18;;;;;;;5.20;0.25;;;;;;;9.93;55.42;100803.25;5028462;28;20033;-70
2022/10/16 02:37:45;;;;;;;4.00;0.45;;;;;;;10.02;55.53;100796.81;5029704;28;20072;-69
2022/10/16 02:40:11;;;;;;;2.10;0.30;;;;;;;10.05;55.44;100799.28;5029292;28;20597;-69
2022/10/16 02:42:39;;;;;;;1.02;0.28;;;;;;;9.94;55.63;100793.63;5031270;28;20057;-69
2022/10/16 02:45:07;;;;;;;3.10;0.70;;;;;;;9.90;56.02;100802.50;5032627;28;20025;-69
2022/10/16 02:47:32;;;;;;;1.08;0.47;;;;;;;9.91;56.24;100805.06;5028858;28;20037;-69
2022/10/16 02:49:57;;;;;;;1.35;0.43;;;;;;;10.07;55.54;100791.41;5033187;28;20112;-69
2022/10/16 02:52:23;;;;;;;1.02;0.30;;;;;;;10.09;55.34;100793.03;5030189;28;20041;-69
2022/10/16 02:54:48;;;;;;;3.40;0.32;;;;;;;10.20;55.32;100800.47;5029978;28;20025;-69
2022/10/16 02:57:14;;;;;;;2.72;0.40;;;;;;;10.28;54.88;100797.53;5028359;28;20078;-69
2022/10/16 02:59:39;;;;;;;3.45;0.88;;;;;;;10.20;55.46;100797.84;5032254;28;20033;-70
2022/10/16 03:02:05;;;;;;;5.88;0.95;;;;;;;10.37;54.67;100799.78;5027927;28;20430;-69
2022/10/16 03:04:31;;;;;;;4.00;0.40;;;;;;;9.93;55.82;100807.63;5028395;28;20141;-69
2022/10/16 03:06:56;;;;;;;6.55;0.40;;;;;;;10.08;55.54;100793.97;5036396;28;20536;-69
2022/10/16 03:09:21;;;;;;;5.60;0.60;;;;;;;10.35;54.69;100799.00;5030028;28;20025;-70
2022/10/16 03:11:47;;;;;;;3.40;0.45;;;;;;;10.31;54.67;100807.88;5030530;28;20041;-69
2022/10/16 03:14:13;;;;;;;5.93;0.52;;;;;;;10.32;54.76;100804.34;5031816;28;20116;-69
2022/10/16 03:16:38;;;;;;;5.00;0.43;;;;;;;10.25;55.09;100814.19;5035987;28;20033;-69
2022/10/16 03:19:03;;;;;;;1.67;0.88;;;;;;;10.50;54.35;100814.03;5028521;28;20419;-69
2022/10/16 03:21:29;;;;;;;2.17;0.47;;;;;;;10.06;55.23;100814.06;5027591;28;20076;-69
2022/10/16 03:23:54;;;;;;;4.65;0.70;;;;;;;10.55;53.74;100817.34;5031180;28;20076;-68
2022/10/16 03:26:20;;;;;;;8.07;0.43;;;;;;;10.44;54.39;100819.53;5031165;28;20405;-69
2022/10/16 03:28:45;;;;;;;1.08;0.40;;;;;;;10.33;54.44;100826.97;5029072;28;20477;-69
2022/10/16 03:31:11;;;;;;;4.97;0.60;;;;;;;10.48;54.20;100810.66;5032263;28;20545;-69
2022/10/16 03:33:36;;;;;;;1.77;0.57;;;;;;;10.61;53.63;100819.69;5029455;28;20108;-68
2022/10/16 03:36:02;;;;;;;1.70;0.50;;;;;;;10.69;53.27;100829.84;5032510;28;20044;-69
2022/10/16 03:38:27;;;;;;;1.10;0.38;;;;;;;10.63;53.45;100830.94;5028795;28;20041;-69
2022/10/16 03:40:53;;;;;;;2.25;0.50;;;;;;;10.74;53.31;100832.25;5029283;28;20291;-70
2022/10/16 03:43:18;;;;;;;3.35;0.65;;;;;;;10.32;54.34;100830.47;5030864;28;20051;-69
2022/10/16 03:45:44;;;;;;;0.85;0.38;;;;;;;10.71;53.35;100832.41;5027390;28;20041;-69
2022/10/16 03:48:09;;;;;;;2.53;0.40;;;;;;;10.54;53.75;100836.53;5030978;28;20041;-69
2022/10/16 03:50:35;;;;;;;3.72;0.40;;;;;;;10.52;54.11;100847.97;5027582;28;20029;-69
2022/10/16 03:53:01;;;;;;;4.40;0.82;;;;;;;10.62;53.54;100851.91;5029778;28;20571;-69
2022/10/16 03:55:26;;;;;;;3.85;0.60;;;;;;;10.62;53.61;100850.16;5028295;28;20029;-68
2022/10/16 03:57:51;;;;;;;9.82;1.50;;;;;;;10.46;54.28;100843.84;5028527;28;20286;-69
2022/10/16 04:00:17;;;;;;;3.65;0.50;;;;;;;10.53;54.08;100840.06;5027467;28;20125;-69
2022/10/16 04:02:42;;;;;;;1.92;0.30;;;;;;;10.63;53.80;100849.22;5028675;28;20041;-69
2022/10/16 04:05:08;;;;;;;2.67;0.60;;;;;;;10.61;53.79;100847.59;5029970;28;20037;-69
2022/10/16 04:07:33;;;;;;;1.77;0.38;;;;;;;10.28;54.66;100849.78;5027596;28;20041;-69
2022/10/16 04:09:59;;;;;;;2.88;0.30;;;;;;;10.72;53.43;100847.16;5020871;28;20079;-68
2022/10/16 04:12:26;;;;;;;3.42;1.15;;;;;;;10.75;53.33;100854.84;5029436;28;20045;-69
2022/10/16 04:14:51;;;;;;;4.40;0.60;;;;;;;10.70;53.45;100852.44;5036554;28;20537;-68
2022/10/16 04:17:17;;;;;;;3.10;0.88;;;;;;;10.66;53.79;100850.00;5028377;28;20040;-69
2022/10/16 04:19:42;;;;;;;7.38;0.47;;;;;;;10.36;55.41;100852.94;5029081;28;20032;-69
2022/10/16 04:22:08;;;;;;;2.03;0.40;;;;;;;10.54;54.01;100857.44;5030386;28;20041;-69
2022/10/16 04:24:34;;;;;;;2.50;0.30;;;;;;;10.58;53.71;100853.78;5035538;28;20152;-69
2022/10/16 04:26:59;;;;;;;3.72;0.45;;;;;;;10.57;53.80;100856.47;5036849;28;20644;-69
2022/10/16 04:29:25;;;;;;;1.92;0.50;;;;;;;10.53;54.10;100855.75;5032645;28;20021;-69
2022/10/16 04:31:50;;;;;;;1.38;0.30;;;;;;;10.54;53.89;100857.44;5027041;28;20073;-69
2022/10/16 04:34:16;;;;;;;4.32;0.40;;;;;;;10.09;55.16;100842.66;5012426;28;20035;-69
2022/10/16 04:36:41;;;;;;;1.60;0.50;;;;;;;10.38;54.49;100845.91;5026797;28;20052;-69
2022/10/16 04:39:06;;;;;;;3.35;0.50;;;;;;;10.35;54.25;100846.03;5043325;28;20466;-69
2022/10/16 04:41:32;;;;;;;3.08;0.47;;;;;;;10.26;54.36;100835.91;5027137;28;20028;-69
2022/10/16 04:43:57;;;;;;;1.42;0.30;;;;;;;9.92;55.30;100845.06;5026072;28;20411;-69
2022/10/16 04:46:23;;;;;;;1.23;0.32;;;;;;;10.17;54.75;100852.84;5032645;28;20353;-69
2022/10/16 04:48:48;;;;;;;2.53;0.45;;;;;;;10.07;54.68;100856.69;5025590;28;20207;-69
2022/10/16 04:51:14;;;;;;;1.33;0.40;;;;;;;10.14;54.25;100864.22;5014022;28;20029;-69
2022/10/16 04:53:39;;;;;;;3.08;0.50;;;;;;;10.02;54.99;100868.16;5026491;28;20034;-69
2022/10/16 04:56:05;;;;;;;3.17;0.43;;;;;;;9.84;55.66;100870.63;5030264;28;20509;-70
2022/10/16 04:58:30;;;;;;;2.05;0.45;;;;;;;10.04;54.62;100872.50;5029736;28;20103;-69
2022/10/16 05:00:56;;;;;;;0.63;0.30;;;;;;;9.91;55.06;100885.16;5028328;28;20064;-69
2022/10/16 05:03:21;;;;;;;2.10;0.40;;;;;;;9.75;55.71;100880.44;5028732;28;20445;-70
2022/10/16 05:05:47;;;;;;;3.30;0.60;;;;;;;9.95;54.87;100879.75;5029570;28;20537;-69
2022/10/16 05:08:14;;;;;;;1.13;0.55;;;;;;;9.92;54.90;100889.44;5032794;28;20219;-70
2022/10/16 05:10:44;;;;;;;1.60;0.85;;;;;;;9.73;55.87;100876.19;5030741;28;20327;-69
2022/10/16 05:13:10;;;;;;;5.70;0.55;;;;;;;9.88;54.80;100882.63;5030662;28;20045;-70
2022/10/16 05:15:35;;;;;;;5.65;0.57;;;;;;;9.77;55.33;100890.84;5039063;28;20447;-70
2022/10/16 05:18:01;;;;;;;1.08;0.40;;;;;;;9.76;55.14;100891.72;5033501;28;20047;-69
2022/10/16 05:20:27;;;;;;;1.13;0.45;;;;;;;9.45;56.61;100899.81;5028848;28;20367;-69
2022/10/16 05:22:52;;;;;;;2.65;0.43;;;;;;;9.70;55.33;100894.56;5032479;28;20049;-69
2022/10/16 05:25:18;;;;;;;1.73;0.38;;;;;;;9.69;55.86;100893.72;5031196;28;20231;-70
2022/10/16 05:27:46;;;;;;;5.72;0.50;;;;;;;9.75;55.34;100892.66;5034039;28;20048;-67
2022/10/16 05:30:12;;;;;;;2.90;0.85;;;;;;;9.68;56.13;100897.25;5036743;28;20035;-70
2022/10/16 05:32:37;;;;;;;2.47;0.68;;;;;;;9.81;55.77;100900.28;5046979;28;20041;-68
2022/10/16 05:35:03;;;;;;;1.75;0.30;;;;;;;9.86;55.61;100905.34;5032462;28;20041;-68
2022/10/16 05:37:28;;;;;;;2.40;1.20;;;;;;;9.83;55.71;100911.50;5029621;28;20041;-68
2022/10/16 05:39:53;;;;;;;1.25;0.30;;;;;;;9.68;56.40;100904.19;5031860;28;21823;-67
2022/10/16 05:42:19;;;;;;;6.43;1.00;;;;;;;9.68;56.33;100912.03;5030961;28;20735;-68
2022/10/16 05:44:44;;;;;;;2.15;0.60;;;;;;;9.80;56.07;100912.47;5030081;28;20057;-67
2022/10/16 05:47:12;;;;;;;3.17;0.30;;;;;;;9.40;56.95;100913.84;5032741;28;20037;-68
2022/10/16 05:49:38;;;;;;;3.47;0.47;;;;;;;9.49;56.93;100920.50;5029378;28;20107;-68
2022/10/16 05:52:03;;;;;;;1.77;0.25;;;;;;;9.66;56.53;100925.16;5033838;28;20045;-67
2022/10/16 05:54:29;;;;;;;1.27;0.38;;;;;;;9.56;56.66;100923.75;5031935;28;20039;-67
2022/10/16 05:56:54;;;;;;;5.38;0.80;;;;;;;9.43;57.16;100933.75;5027594;28;20045;-68
2022/10/16 05:59:19;;;;;;;2.10;0.30;;;;;;;9.39;57.49;100940.00;5034068;28;20068;-68
2022/10/16 06:01:45;;;;;;;4.68;0.88;;;;;;;9.85;56.19;100938.41;5029377;28;20033;-68
2022/10/16 06:04:11;;;;;;;4.40;0.70;;;;;;;9.95;55.70;100933.72;5029706;28;20068;-68
2022/10/16 06:06:36;;;;;;;1.30;0.35;;;;;;;9.78;56.46;100940.38;5031714;28;20025;-68
2022/10/16 06:09:03;;;;;;;3.47;0.38;;;;;;;10.32;54.95;100924.50;5030582;28;20061;-68
2022/10/16 06:11:31;;;;;;;3.22;0.30;;;;;;;10.46;54.42;100924.84;5029873;28;20520;-69
2022/10/16 06:13:59;;;;;;;1.98;0.40;;;;;;;10.40;54.63;100932.91;5029229;28;20049;-69
2022/10/16 06:16:26;;;;;;;2.20;0.98;;;;;;;10.49;54.71;100918.66;5031709;28;20063;-68
2022/10/16 06:18:52;;;;;;;1.67;0.75;;;;;;;10.49;54.76;100916.88;5027938;28;20536;-68
2022/10/16 06:21:21;;;;;;;2.10;0.47;;;;;;;10.33;55.18;100926.22;5032630;28;20377;-68
2022/10/16 06:23:47;;;;;;;2.13;0.40;;;;;;;10.43;55.19;100938.00;5044032;28;20135;-69
2022/10/16 06:26:15;;;;;;;1.73;0.55;;;;;;;10.60;54.85;100940.84;5015163;28;20035;-68
2022/10/16 06:28:41;;;;;;;0.70;0.30;;;;;;;10.62;54.54;100928.56;5029156;28;20094;-68
2022/10/16 06:31:09;;;;;;;6.40;0.60;;;;;;;10.77;54.40;100926.25;5030952;28;20033;-68
2022/10/16 06:33:35;;;;;;;2.65;0.57;;;;;;;10.77;54.41;100932.34;5028978;28;20052;-68
2022/10/16 06:36:12;;;;;;;3.03;0.55;;;;;;;10.88;54.13;100942.38;5021968;28;20028;-68
2022/10/16 06:38:38;;;;;;;7.53;1.35;;;;;;;10.61;54.75;100947.75;5030994;28;20048;-68
2022/10/16 06:41:05;;;;;;;5.35;0.52;;;;;;;10.87;54.16;100942.47;5030647;28;20040;-68
2022/10/16 06:43:32;;;;;;;5.63;0.55;;;;;;;10.90;53.82;100952.78;5037172;28;20331;-68
2022/10/16 06:45:59;;;;;;;3.13;0.63;;;;;;;10.86;53.91;100962.53;5030284;28;20053;-68
2022/10/16 06:48:25;;;;;;;1.83;0.47;;;;;;;10.63;54.95;100953.78;5029644;28;20029;-68
2022/10/16 06:51:12;;;;;;;3.65;0.60;;;;;;;11.00;54.23;100961.97;5028186;28;20117;-68
2022/10/16 06:53:41;;;;;;;3.70;0.98;;;;;;;11.18;53.67;100963.84;5028238;28;20073;-69
2022/10/16 06:56:18;;;;;;;1.20;0.75;;;;;;;11.13;53.67;100964.91;5030197;28;20269;-67
2022/10/16 06:58:44;;;;;;;4.18;0.50;;;;;;;11.19;53.64;100973.38;5029924;28;20072;-68
2022/10/16 07:01:11;;;;;;;4.47;0.60;;;;;;;11.18;53.62;100970.84;5027718;28;20224;-68
2022/10/16 07:03:38;;;;;;;7.15;1.48;;;;;;;11.56;52.99;100969.22;5036735;28;20041;-68
2022/10/16 07:06:06;;;;;;;4.20;0.55;;;;;;;11.71;52.46;100969.47;5032599;28;20025;-68
2022/10/16 07:08:36;;;;;;;1.77;0.47;;;;;;;12.04;52.07;100981.16;5028452;28;20049;-68
2022/10/16 07:11:04;;;;;;;1.55;0.50;;;;;;;13.98;49.63;100976.19;5036746;28;20044;-68
2022/10/16 07:13:32;;;;;;;1.23;0.50;;;;;;;15.05;44.89;100980.00;5036618;28;20045;-68
2022/10/16 07:15:57;;;;;;;2.20;0.63;;;;;;;14.23;44.85;100976.59;5030081;28;20033;-69
2022/10/16 07:18:26;;;;;;;0.93;0.40;;;;;;;13.43;47.25;100991.22;5030330;28;20105;-69
2022/10/16 07:20:52;;;;;;;2.55;0.57;;;;;;;14.58;45.41;100987.00;5028515;28;20061;-69
2022/10/16 07:23:18;;;;;;;5.57;0.80;;;;;;;14.68;44.53;100993.47;5029919;28;20041;-69
2022/10/16 07:25:43;;;;;;;4.55;1.42;;;;;;;15.20;44.20;100991.44;5029524;28;20575;-68
2022/10/16 07:28:09;;;;;;;3.45;0.98;;;;;;;16.57;41.58;100994.63;5035884;28;20033;-69
2022/10/16 07:30:37;;;;;;;1.25;0.32;;;;;;;15.70;42.12;100999.03;5029240;28;20035;-69
2022/10/16 07:33:03;;;;;;;2.47;0.52;;;;;;;14.23;45.54;101018.66;5031279;28;20064;-69
2022/10/16 07:35:28;;;;;;;2.53;0.93;;;;;;;13.19;48.03;101021.31;5031274;28;20598;-68
2022/10/16 07:37:54;;;;;;;5.25;1.15;;;;;;;12.59;50.19;101022.34;5027263;28;20037;-69
2022/10/16 07:40:19;;;;;;;4.07;0.88;;;;;;;12.23;51.33;101038.81;5032454;28;20486;-69
2022/10/16 07:42:45;;;;;;;2.55;0.90;;;;;;;10.93;55.28;101045.06;5027734;28;20064;-68
2022/10/16 07:45:10;;;;;;;2.28;0.95;;;;;;;11.75;53.08;101037.34;5030588;28;20501;-69
2022/10/16 07:47:36;;;;;;;8.35;0.75;;;;;;;11.71;53.49;101051.50;5030036;28;20071;-69
2022/10/16 07:50:01;;;;;;;4.80;0.80;;;;;;;12.19;52.99;101042.47;5030549;28;20433;-68
2022/10/16 07:52:27;;;;;;;3.08;0.63;;;;;;;12.40;52.29;101039.81;5026835;28;20486;-68
2022/10/16 07:54:52;;;;;;;2.03;0.80;;;;;;;13.38;49.28;101042.25;5027739;28;20099;-68
2022/10/16 07:57:19;;;;;;;2.53;0.52;;;;;;;11.70;53.04;101041.94;5026015;28;20316;-68
2022/10/16 07:59:46;;;;;;;4.65;0.98;;;;;;;11.64;53.17;101055.28;5029859;28;20703;-68
2022/10/16 08:02:12;;;;;;;1.83;0.50;;;;;;;11.19;54.47;101053.63;5035380;28;20406;-68
2022/10/16 08:04:37;;;;;;;2.88;0.82;;;;;;;11.85;52.77;101054.41;5032978;28;20037;-69
2022/10/16 08:07:03;;;;;;;6.28;0.68;;;;;;;12.37;52.08;101076.66;5015627;28;20059;-68
2022/10/16 08:09:28;;;;;;;3.63;0.75;;;;;;;13.45;49.34;101055.00;5027764;28;20093;-68
2022/10/16 08:11:54;;;;;;;4.00;0.80;;;;;;;14.27;47.13;101062.25;5030442;28;20036;-68
2022/10/16 08:14:19;;;;;;;2.95;0.47;;;;;;;14.16;47.53;101075.09;5035691;28;20477;-68
2022/10/16 08:16:45;;;;;;;2.03;0.70;;;;;;;13.53;48.74;101071.22;5025979;28;20124;-68
2022/10/16 08:19:10;;;;;;;1.35;0.40;;;;;;;14.26;47.66;101076.34;5028582;28;20041;-68
2022/10/16 08:21:35;;;;;;;2.10;0.63;;;;;;;14.89;46.17;101086.13;5030587;28;20111;-68
2022/10/16 08:24:01;;;;;;;4.20;0.40;;;;;;;15.02;45.27;101081.06;5036300;28;20036;-69
2022/10/16 08:26:27;;;;;;;5.63;0.75;;;;;;;14.96;45.13;101079.59;5027046;28;20029;-68
2022/10/16 08:28:53;;;;;;;3.38;0.55;;;;;;;14.22;45.81;101061.66;5027627;28;20033;-68
2022/10/16 08:31:19;;;;;;;3.97;0.52;;;;;;;16.41;43.22;101085.28;5030133;28;20037;-68
2022/10/16 08:33:48;;;;;;;2.42;0.60;;;;;;;16.86;40.24;101086.97;5033157;28;20500;-69
2022/10/16 08:36:14;;;;;;;2.03;0.32;;;;;;;16.55;41.04;101094.97;5029248;28;20033;-68
2022/10/16 08:38:40;;;;;;;2.90;0.75;;;;;;;15.88;42.94;101094.59;5028925;28;20109;-69
2022/10/16 08:41:20;;;;;;;2.42;0.60;;;;;;;15.26;43.38;101099.06;5026591;28;20116;-68
2022/10/16 08:44:07;;;;;;;4.00;0.60;;;;;;;14.63;45.09;101105.97;5027754;28;20609;-69
2022/10/16 08:46:50;;;;;;;2.47;0.30;;;;;;;15.34;44.54;101105.59;5028898;28;20029;-68
2022/10/16 08:49:16;;;;;;;3.15;0.43;;;;;;;14.48;45.00;101101.53;5026967;28;20068;-69
2022/10/16 08:51:42;;;;;;;1.10;0.20;;;;;;;14.70;45.18;101112.63;5027661;28;20032;-69
2022/10/16 08:54:31;;;;;;;1.95;0.28;;;;;;;15.44;44.09;101121.75;5037502;28;20140;-68
2022/10/16 08:57:08;;;;;;;5.75;0.43;;;;;;;14.23;45.64;101125.56;5027899;28;20041;-69
2022/10/16 08:59:33;;;;;;;2.90;0.32;;;;;;;13.52;47.33;101131.72;5028067;28;20144;-68
2022/10/16 09:02:01;;;;;;;2.60;0.50;;;;;;;14.22;46.02;101143.13;5035308;28;21575;-69
2022/10/16 09:04:53;;;;;;;1.70;0.60;;;;;;;14.20;46.47;101139.72;5035125;28;20045;-68
2022/10/16 09:07:21;;;;;;;9.63;0.60;;;;;;;12.90;48.90;101152.94;5027863;28;20080;-68
2022/10/16 09:10:08;;;;;;;2.10;0.30;;;;;;;13.13;49.36;101151.03;5028376;28;20553;-67
2022/10/16 09:12:42;;;;;;;5.10;0.50;;;;;;;12.87;49.39;101146.97;5027286;28;20131;-68
2022/10/16 09:15:24;;;;;;;3.25;0.40;;;;;;;13.31;48.85;101149.31;5027920;28;20037;-68
2022/10/16 09:17:54;;;;;;;2.70;0.30;;;;;;;13.74;47.98;101152.53;5025955;28;20049;-68
2022/10/16 09:20:48;;;;;;;4.55;0.40;;;;;;;13.80;47.58;101152.25;5027083;28;20071;-69
2022/10/16 09:23:30;;;;;;;2.30;0.30;;;;;;;14.66;46.00;101168.94;5027982;28;20140;-68
2022/10/16 09:25:58;;;;;;;2.60;0.60;;;;;;;14.85;45.30;101165.34;5027435;28;20104;-69
2022/10/16 09:28:23;;;;;;;5.75;0.40;;;;;;;15.55;43.94;101169.41;5028287;28;20049;-68
2022/10/16 09:30:49;;;;;;;1.85;0.50;;;;;;;15.07;44.81;101168.50;5029406;28;20033;-69
2022/10/16 09:33:16;;;;;;;5.32;0.25;;;;;;;14.28;45.69;101169.13;5027976;28;20124;-69
2022/10/16 09:35:49;;;;;;;0.82;0.20;;;;;;;14.28;46.32;101178.78;5026802;28;20554;-69
2022/10/16 09:38:30;;;;;;;1.33;0.20;;;;;;;14.65;45.63;101177.75;5028119;28;20044;-68
2022/10/16 09:40:58;;;;;;;2.63;1.40;;;;;;;15.05;44.44;101190.59;5027833;28;20032;-69
2022/10/16 09:43:27;;;;;;;2.78;0.40;;;;;;;14.58;45.88;101194.78;5026542;28;20078;-68
2022/10/16 09:45:58;;;;;;;3.40;0.20;;;;;;;14.80;45.26;101201.56;5014642;28;20108;-68
2022/10/16 09:48:27;;;;;;;3.60;0.85;;;;;;;15.01;44.40;101210.09;5027518;28;20205;-68
2022/10/16 09:51:02;;;;;;;4.97;0.25;;;;;;;15.00;44.42;101205.78;5025821;28;20623;-68
2022/10/16 09:53:46;;;;;;;3.28;0.43;;;;;;;14.28;45.09;101210.34;5029511;28;20626;-69
2022/10/16 09:56:21;;;;;;;5.85;0.45;;;;;;;14.54;45.36;101211.66;5030301;28;20033;-68
2022/10/16 09:58:51;;;;;;;4.50;0.60;;;;;;;15.85;43.47;101213.38;5030367;28;20067;-68
2022/10/16 10:01:17;;;;;;;4.13;0.25;;;;;;;15.95;42.90;101218.97;5038348;28;20036;-68
2022/10/16 10:03:44;;;;;;;4.90;0.50;;;;;;;15.43;43.58;101224.53;5031449;28;20575;-68
2022/10/16 10:06:25;;;;;;;4.85;0.38;;;;;;;14.23;45.46;101215.84;5034897;28;20083;-69
2022/10/16 10:08:59;;;;;;;5.82;0.50;;;;;;;14.54;45.17;101222.19;5035697;28;20061;-68
2022/10/16 10:11:51;;;;;;;2.70;0.13;;;;;;;14.50;44.97;101232.03;5030836;28;20115;-68
2022/10/16 10:14:18;;;;;;;3.10;0.52;;;;;;;13.87;46.75;101221.94;5022047;28;20048;-68
2022/10/16 10:16:44;;;;;;;3.33;0.73;;;;;;;14.62;44.47;101230.53;5027805;28;20408;-69
2022/10/16 10:19:18;;;;;;;2.72;0.17;;;;;;;14.86;45.05;101240.72;5031351;28;20120;-68
2022/10/16 10:21:44;;;;;;;4.05;0.55;;;;;;;14.71;44.55;101245.00;5013836;28;20021;-68
2022/10/16 10:24:16;;;;;;;1.85;0.28;;;;;;;15.30;43.58;101245.41;5031843;28;20557;-69
2022/10/16 10:27:03;;;;;;;4.35;0.50;;;;;;;14.85;44.96;101252.16;5029460;28;20032;-68
2022/10/16 10:29:42;;;;;;;5.15;0.50;;;;;;;14.07;45.57;101252.50;5029021;28;20094;-68
2022/10/16 10:32:35;;;;;;;2.25;0.30;;;;;;;14.00;46.63;101255.53;5037591;28;20047;-68
2022/10/16 10:35:07;;;;;;;2.20;0.30;;;;;;;14.75;44.21;101257.06;5030720;28;20110;-70
2022/10/16 10:37:32;;;;;;;;;;;;;;;15.26;44.02;101257.91;5029080;28;20049;-69
2022/10/16 10:40:09;;;;;;;7.30;0.73;;;;;;;15.11;43.16;101259.56;5031199;28;20096;-68
2022/10/16 10:42:51;;;;;;;6.93;0.35;;;;;;;14.84;44.08;101267.13;5036317;28;20073;-68
2022/10/16 10:45:44;;;;;;;3.90;0.30;;;;;;;14.95;44.25;101269.19;5030850;28;20029;-68
2022/10/16 10:48:19;;;;;;;7.68;0.40;;;;;;;15.17;42.95;101271.56;5030691;28;20064;-68
2022/10/16 10:50:52;;;;;;;5.82;0.25;;;;;;;15.87;41.86;101281.84;5030908;28;20036;-68
2022/10/16 10:53:51;;;;;;;5.13;0.30;;;;;;;15.75;41.58;101291.25;5037722;28;20072;-68
2022/10/16 10:56:35;;;;;;;2.50;0.43;;;;;;;14.84;43.70;101282.91;5031294;28;20037;-69
2022/10/16 10:59:23;;;;;;;3.80;0.68;;;;;;;15.29;42.72;101293.78;5027964;28;20045;-68
2022/10/16 11:01:56;;;;;;;2.15;0.30;;;;;;;15.28;42.49;101292.94;4988388;28;20052;-69
2022/10/16 11:04:39;;;;;;;4.43;0.40;;;;;;;15.28;41.71;101292.94;5029862;28;20033;-69
2022/10/16 11:07:14;;;;;;;4.30;0.28;;;;;;;15.67;41.51;101301.38;5031365;28;20049;-69
2022/10/16 11:09:46;;;;;;;6.65;1.08;;;;;;;15.40;40.92;101309.84;5029962;28;20106;-69
2022/10/16 11:12:21;;;;;;;3.75;0.40;;;;;;;15.05;41.47;101307.25;5029546;28;20601;-69
2022/10/16 11:14:55;;;;;;;7.80;0.77;;;;;;;15.55;40.42;101289.72;5030531;28;20033;-69
2022/10/16 11:17:38;;;;;;;6.32;0.30;;;;;;;13.81;43.65;101311.59;5029830;28;20107;-68
2022/10/16 11:20:19;;;;;;;10.63;1.17;;;;;;;14.67;41.81;101312.69;5028796;28;20290;-69
2022/10/16 11:22:48;;;;;;;3.10;0.30;;;;;;;14.83;40.66;101311.91;5026129;28;20449;-69
2022/10/16 11:25:27;;;;;;;6.90;0.52;;;;;;;15.06;41.24;101319.50;5029059;28;20533;-69
2022/10/16 11:28:07;;;;;;;10.23;0.50;;;;;;;15.36;40.97;101321.47;5027608;28;20321;-68
2022/10/16 11:30:50;;;;;;;5.80;0.43;;;;;;;14.93;41.37;101331.59;5029720;28;20037;-68
2022/10/16 11:33:18;;;;;;;5.53;0.65;;;;;;;15.04;41.82;101331.03;5028096;28;20087;-68
2022/10/16 11:35:55;;;;;;;8.02;0.30;;;;;;;15.50;40.94;101332.09;5028038;28;20570;-68
2022/10/16 11:38:36;;;;;;;4.53;0.40;;;;;;;15.64;39.25;101331.41;5029265;28;20542;-68